createdAt,value
2017-12-20T00:01:31.457Z,5.80
2017-12-20T00:03:59.146Z,6.20
2017-12-20T00:06:26.776Z,5.90
2017-12-20T00:08:54.437Z,6.40
2017-12-20T00:11:22.082Z,6.40
2017-12-20T00:13:49.730Z,6.40
2017-12-20T00:16:17.350Z,6.40
2017-12-20T00:18:45.009Z,6.40
2017-12-20T00:21:12.670Z,6.40
2017-12-20T00:23:40.311Z,6.30
2017-12-20T00:26:07.941Z,6.40
2017-12-20T00:28:35.833Z,6.40
2017-12-20T00:31:03.500Z,6.30
2017-12-20T00:33:31.163Z,6.30
2017-12-20T00:35:58.779Z,5.80
2017-12-20T00:38:26.439Z,6.00
2017-12-20T00:40:54.106Z,5.90
2017-12-20T00:43:22.499Z,6.30
2017-12-20T00:45:50.167Z,6.30
2017-12-20T00:48:17.830Z,6.40
2017-12-20T00:50:45.681Z,6.40
2017-12-20T00:53:14.149Z,5.80
2017-12-20T00:55:41.774Z,6.30
2017-12-20T00:58:09.438Z,6.40
2017-12-20T01:00:37.054Z,6.40
2017-12-20T01:03:04.710Z,6.30
2017-12-20T01:05:32.345Z,6.30
2017-12-20T01:08:00.069Z,5.90
2017-12-20T01:10:28.452Z,6.40
2017-12-20T01:12:56.882Z,6.40
2017-12-20T01:15:24.536Z,6.10
2017-12-20T01:17:52.157Z,6.40
2017-12-20T01:20:19.814Z,6.00
2017-12-20T01:22:48.240Z,6.20
2017-12-20T01:25:16.102Z,6.10
2017-12-20T01:27:43.744Z,6.00
2017-12-20T01:30:11.398Z,6.20
2017-12-20T01:32:39.050Z,6.20
2017-12-20T01:35:06.714Z,6.20
2017-12-20T01:40:24.747Z,6.10
2017-12-20T01:42:52.417Z,6.10
2017-12-20T01:45:21.423Z,6.20
2017-12-20T01:47:49.613Z,6.00
2017-12-20T01:50:18.037Z,6.20
2017-12-20T01:52:46.450Z,5.90
2017-12-20T01:55:14.097Z,6.20
2017-12-20T01:57:41.798Z,6.10
2017-12-20T02:00:10.202Z,6.40
2017-12-20T02:02:37.894Z,5.90
2017-12-20T02:05:06.311Z,6.40
2017-12-20T02:07:33.932Z,5.90
2017-12-20T02:10:02.363Z,5.80
2017-12-20T02:12:29.994Z,6.30
2017-12-20T02:14:57.904Z,6.40
2017-12-20T02:17:26.362Z,6.30
2017-12-20T02:19:54.065Z,6.20
2017-12-20T02:22:22.545Z,6.10
2017-12-20T02:24:50.210Z,6.00
2017-12-20T02:27:18.645Z,6.10
2017-12-20T02:29:46.349Z,6.10
2017-12-20T02:32:14.963Z,5.90
2017-12-20T02:34:42.691Z,6.00
2017-12-20T02:37:10.976Z,5.90
2017-12-20T02:39:39.306Z,6.00
2017-12-20T02:42:08.831Z,5.90
2017-12-20T02:44:36.528Z,6.30
2017-12-20T02:47:04.201Z,6.30
2017-12-20T02:49:31.907Z,5.70
2017-12-20T02:51:59.570Z,6.20
2017-12-20T02:54:27.234Z,5.90
2017-12-20T02:56:55.585Z,5.80
2017-12-20T02:59:23.290Z,6.30
2017-12-20T03:01:51.758Z,6.20
2017-12-20T03:04:19.449Z,6.20
2017-12-20T03:06:47.134Z,6.20
2017-12-20T03:09:14.833Z,6.10
2017-12-20T03:11:42.530Z,6.00
2017-12-20T03:14:10.203Z,6.10
2017-12-20T03:16:37.893Z,6.40
2017-12-20T03:19:05.517Z,6.40
2017-12-20T03:21:33.209Z,6.40
2017-12-20T03:24:00.870Z,6.00
2017-12-20T03:26:29.054Z,6.20
2017-12-20T03:28:57.438Z,6.20
2017-12-20T03:31:25.529Z,6.20
2017-12-20T03:33:53.373Z,6.00
2017-12-20T03:36:21.005Z,6.20
2017-12-20T03:38:48.678Z,6.10
2017-12-20T03:41:16.370Z,6.30
2017-12-20T03:43:44.033Z,6.40
2017-12-20T03:46:11.674Z,6.40
2017-12-20T03:48:39.329Z,6.30
2017-12-20T03:51:07.186Z,5.80
2017-12-20T03:53:35.170Z,6.20
2017-12-20T03:56:02.882Z,5.90
2017-12-20T03:58:30.533Z,5.80
2017-12-20T04:00:58.195Z,6.00
2017-12-20T04:03:26.613Z,5.90
2017-12-20T04:05:54.274Z,5.90
2017-12-20T04:08:22.060Z,6.00
2017-12-20T04:10:49.683Z,5.90
2017-12-20T04:13:18.080Z,5.80
2017-12-20T04:15:45.702Z,6.00
2017-12-20T04:18:13.377Z,5.90
2017-12-20T04:20:41.186Z,5.80
2017-12-20T04:23:08.873Z,6.00
2017-12-20T04:25:36.486Z,5.90
2017-12-20T04:28:04.150Z,6.10
2017-12-20T04:30:31.769Z,6.10
2017-12-20T04:32:59.427Z,6.10
2017-12-20T04:35:27.111Z,5.80
2017-12-20T04:37:55.544Z,5.90
2017-12-20T04:40:23.193Z,6.00
2017-12-20T04:42:51.350Z,5.90
2017-12-20T04:45:18.974Z,6.10
2017-12-20T04:47:46.869Z,5.80
2017-12-20T04:50:14.878Z,5.90
2017-12-20T04:52:43.318Z,6.00
2017-12-20T04:55:10.934Z,5.80
2017-12-20T04:57:38.710Z,6.00
2017-12-20T05:00:06.610Z,5.90
2017-12-20T05:02:34.861Z,6.00
2017-12-20T05:05:03.457Z,5.80
2017-12-20T05:07:31.077Z,5.90
2017-12-20T05:09:58.698Z,5.70
2017-12-20T05:12:26.430Z,5.90
2017-12-20T05:14:54.051Z,6.00
2017-12-20T05:17:21.873Z,6.00
2017-12-20T05:19:49.484Z,5.90
2017-12-20T05:22:17.406Z,6.00
2017-12-20T05:24:46.156Z,5.90
2017-12-20T05:27:13.923Z,5.80
2017-12-20T05:29:41.999Z,6.00
2017-12-20T05:32:10.686Z,5.90
2017-12-20T05:34:40.443Z,6.00
2017-12-20T05:37:08.146Z,5.80
2017-12-20T05:39:38.417Z,5.90
2017-12-20T05:42:11.380Z,5.80
2017-12-20T05:44:41.302Z,6.00
2017-12-20T05:47:09.026Z,5.90
2017-12-20T05:49:36.682Z,6.00
2017-12-20T05:52:04.319Z,5.90
2017-12-20T05:54:34.599Z,6.10
2017-12-20T05:57:03.629Z,6.10
2017-12-20T05:59:32.578Z,5.90
2017-12-20T06:02:01.663Z,6.10
2017-12-20T06:04:29.373Z,6.00
2017-12-20T06:06:57.806Z,5.80
2017-12-20T06:09:28.085Z,5.80
2017-12-20T06:11:55.706Z,6.00
2017-12-20T06:14:23.466Z,5.90
2017-12-20T06:16:51.084Z,5.80
2017-12-20T06:19:18.738Z,5.90
2017-12-20T06:21:46.418Z,6.00
2017-12-20T06:24:14.202Z,5.90
2017-12-20T06:26:42.018Z,5.70
2017-12-20T06:29:11.433Z,6.00
2017-12-20T06:31:39.941Z,6.00
2017-12-20T06:34:08.269Z,5.80
2017-12-20T06:36:38.789Z,5.90
2017-12-20T06:39:07.545Z,6.10
2017-12-20T06:41:35.175Z,6.10
2017-12-20T06:44:04.966Z,6.10
2017-12-20T06:46:32.798Z,5.80
2017-12-20T06:49:00.458Z,5.90
2017-12-20T06:51:28.886Z,5.90
2017-12-20T06:53:56.554Z,5.90
2017-12-20T06:56:24.174Z,6.00
2017-12-20T06:58:51.873Z,5.90
2017-12-20T07:01:19.534Z,6.10
2017-12-20T07:03:48.700Z,5.80
2017-12-20T07:06:16.375Z,6.00
2017-12-20T07:08:43.989Z,5.90
2017-12-20T07:11:12.185Z,5.70
2017-12-20T07:13:40.293Z,5.90
2017-12-20T07:16:09.286Z,5.70
2017-12-20T07:18:37.306Z,5.90
2017-12-20T07:21:05.762Z,6.00
2017-12-20T07:23:34.111Z,5.90
2017-12-20T07:26:01.773Z,6.00
2017-12-20T07:28:30.699Z,5.80
2017-12-20T07:30:58.319Z,6.00
2017-12-20T07:33:26.083Z,5.90
2017-12-20T07:35:53.771Z,5.70
2017-12-20T07:38:24.563Z,5.80
2017-12-20T07:40:52.346Z,6.00
2017-12-20T07:43:20.208Z,5.90
2017-12-20T07:45:48.609Z,6.10
2017-12-20T07:48:20.961Z,5.80
2017-12-20T07:50:51.121Z,6.10
2017-12-20T07:53:19.796Z,5.80
2017-12-20T07:55:47.517Z,6.00
2017-12-20T07:58:16.408Z,5.90
2017-12-20T08:00:44.889Z,6.30
2017-12-20T08:03:13.840Z,5.90
2017-12-20T08:05:41.510Z,5.90
2017-12-20T08:08:09.560Z,6.10
2017-12-20T08:10:38.034Z,6.00
2017-12-20T08:13:06.415Z,5.90
2017-12-20T08:15:34.850Z,6.40
2017-12-20T08:18:02.481Z,6.20
2017-12-20T08:20:30.375Z,5.90
2017-12-20T08:22:58.019Z,6.40
2017-12-20T08:25:25.681Z,6.40
2017-12-20T08:27:53.359Z,6.40
2017-12-20T08:30:21.116Z,5.80
2017-12-20T08:32:49.132Z,6.10
2017-12-20T08:35:17.550Z,5.90
2017-12-20T08:37:45.221Z,6.10
2017-12-20T08:40:12.839Z,6.20
2017-12-20T08:42:40.545Z,5.80
2017-12-20T08:45:08.194Z,6.20
2017-12-20T08:47:35.822Z,6.10
2017-12-20T08:50:03.532Z,6.40
2017-12-20T08:52:31.150Z,6.40
2017-12-20T08:54:58.814Z,6.40
2017-12-20T08:57:26.429Z,6.40
2017-12-20T08:59:54.086Z,6.40
2017-12-20T09:02:23.259Z,6.20
2017-12-20T09:04:51.024Z,6.20
2017-12-20T09:07:18.651Z,6.40
2017-12-20T09:09:46.310Z,6.40
2017-12-20T09:12:14.005Z,6.40
2017-12-20T09:14:41.658Z,6.50
2017-12-20T09:17:09.450Z,6.20
2017-12-20T09:19:37.296Z,6.50
2017-12-20T09:22:04.947Z,6.30
2017-12-20T09:24:32.566Z,6.50
2017-12-20T09:27:00.234Z,6.30
2017-12-20T09:29:27.895Z,6.10
2017-12-20T09:31:55.754Z,6.70
2017-12-20T09:34:24.411Z,6.70
2017-12-20T09:36:52.036Z,6.50
2017-12-20T09:39:19.664Z,6.60
2017-12-20T09:41:47.470Z,6.60
2017-12-20T09:44:15.149Z,6.50
2017-12-20T09:46:43.614Z,6.50
2017-12-20T09:49:11.290Z,6.70
2017-12-20T09:51:38.949Z,6.70
2017-12-20T09:54:06.566Z,6.70
2017-12-20T09:56:34.227Z,6.70
2017-12-20T09:59:01.851Z,6.80
2017-12-20T10:01:29.513Z,6.50
2017-12-20T10:03:57.897Z,6.80
2017-12-20T10:06:26.342Z,6.50
2017-12-20T10:08:54.039Z,6.60
2017-12-20T10:11:22.514Z,6.70
2017-12-20T10:13:52.071Z,6.90
2017-12-20T10:16:19.754Z,6.50
2017-12-20T10:18:47.470Z,6.50
2017-12-20T10:21:15.106Z,6.60
2017-12-20T10:23:42.797Z,6.60
2017-12-20T10:26:10.424Z,6.70
2017-12-20T10:28:38.255Z,6.70
2017-12-20T10:31:05.939Z,6.70
2017-12-20T10:33:33.577Z,6.70
2017-12-20T10:36:01.589Z,6.80
2017-12-20T10:38:29.844Z,7.00
2017-12-20T10:40:57.775Z,6.70
2017-12-20T10:43:25.490Z,7.00
2017-12-20T10:45:53.160Z,6.70
2017-12-20T10:48:20.858Z,7.10
2017-12-20T10:50:48.570Z,7.00
2017-12-20T10:53:16.591Z,6.90
2017-12-20T10:55:44.260Z,7.00
2017-12-20T10:58:11.881Z,6.70
2017-12-20T11:00:39.547Z,7.10
2017-12-20T11:03:07.216Z,7.10
2017-12-20T11:05:34.912Z,6.30
2017-12-20T11:08:02.545Z,7.00
2017-12-20T11:10:30.242Z,7.00
2017-12-20T11:12:57.866Z,6.90
2017-12-20T11:15:26.529Z,7.20
2017-12-20T11:17:54.208Z,6.90
2017-12-20T11:20:21.874Z,7.10
2017-12-20T11:22:49.578Z,7.10
2017-12-20T11:25:17.269Z,7.10
2017-12-20T11:27:44.902Z,7.20
2017-12-20T11:30:12.600Z,6.90
2017-12-20T11:32:40.239Z,7.20
2017-12-20T11:35:07.868Z,6.90
2017-12-20T11:37:35.570Z,7.10
2017-12-20T11:40:03.238Z,7.20
2017-12-20T11:42:30.909Z,7.30
2017-12-20T11:44:58.527Z,7.20
2017-12-20T11:47:26.209Z,7.20
2017-12-20T11:49:53.834Z,7.20
2017-12-20T11:52:21.494Z,7.30
2017-12-20T11:54:49.162Z,7.20
2017-12-20T11:57:16.809Z,7.20
2017-12-20T11:59:44.555Z,7.00
2017-12-20T12:02:12.407Z,7.00
2017-12-20T12:04:40.053Z,7.20
2017-12-20T12:07:07.841Z,7.20
2017-12-20T12:09:35.481Z,7.20
2017-12-20T12:12:03.189Z,7.30
2017-12-20T12:14:31.129Z,7.10
2017-12-20T12:16:58.781Z,7.10
2017-12-20T12:19:27.006Z,7.20
2017-12-20T12:21:56.702Z,7.40
2017-12-20T12:24:24.357Z,7.20
2017-12-20T12:26:53.022Z,7.60
2017-12-20T12:29:20.707Z,7.50
2017-12-20T12:31:48.549Z,7.30
2017-12-20T12:34:16.893Z,7.40
2017-12-20T12:36:44.590Z,7.30
2017-12-20T12:39:12.236Z,7.10
2017-12-20T12:41:40.446Z,7.10
2017-12-20T12:44:08.126Z,7.50
2017-12-20T12:46:36.044Z,7.40
2017-12-20T12:49:04.726Z,7.40
2017-12-20T12:51:32.368Z,7.40
2017-12-20T12:54:00.013Z,7.40
2017-12-20T12:56:27.719Z,7.50
2017-12-20T12:58:56.020Z,7.60
2017-12-20T13:01:24.336Z,7.40
2017-12-20T13:03:52.006Z,7.40
2017-12-20T13:06:19.668Z,7.60
2017-12-20T13:08:47.530Z,7.60
2017-12-20T13:11:15.209Z,7.40
2017-12-20T13:13:42.882Z,7.40
2017-12-20T13:16:10.506Z,7.40
2017-12-20T13:18:38.179Z,7.50
2017-12-20T13:21:05.837Z,7.50
2017-12-20T13:23:33.459Z,7.60
2017-12-20T13:26:01.118Z,7.40
2017-12-20T13:28:29.530Z,7.50
2017-12-20T13:30:57.259Z,7.60
2017-12-20T13:33:24.877Z,7.40
2017-12-20T13:35:52.546Z,7.50
2017-12-20T13:38:20.171Z,7.30
2017-12-20T13:40:47.817Z,7.60
2017-12-20T13:43:15.523Z,7.40
2017-12-20T13:45:43.170Z,7.50
2017-12-20T13:48:10.830Z,7.60
2017-12-20T13:50:38.474Z,7.40
2017-12-20T13:53:06.834Z,7.40
2017-12-20T13:55:34.462Z,7.50
2017-12-20T13:58:02.762Z,7.60
2017-12-20T14:00:30.465Z,7.40
2017-12-20T14:02:58.138Z,7.60
2017-12-20T14:05:25.841Z,7.40
2017-12-20T14:07:53.530Z,7.50
2017-12-20T14:10:21.254Z,7.30
2017-12-20T14:12:48.926Z,7.50
2017-12-20T14:15:16.574Z,7.70
2017-12-20T14:17:44.388Z,7.40
2017-12-20T14:20:12.050Z,7.50
2017-12-20T14:22:39.719Z,7.60
2017-12-20T14:25:07.343Z,7.40
2017-12-20T14:27:35.005Z,7.20
2017-12-20T14:30:02.669Z,7.40
2017-12-20T14:32:30.326Z,7.60
2017-12-20T14:34:58.019Z,7.40
2017-12-20T14:37:25.681Z,7.10
2017-12-20T14:39:53.338Z,7.10
2017-12-20T14:42:20.961Z,7.40
2017-12-20T14:44:48.769Z,7.20
2017-12-20T14:47:16.385Z,7.60
2017-12-20T14:49:44.013Z,7.20
2017-12-20T14:52:12.487Z,7.60
2017-12-20T14:54:40.258Z,7.50
2017-12-20T14:57:07.925Z,7.40
2017-12-20T14:59:36.333Z,7.60
2017-12-20T15:02:05.090Z,7.20
2017-12-20T15:04:32.706Z,7.30
2017-12-20T15:07:00.444Z,7.10
2017-12-20T15:09:28.761Z,7.40
2017-12-20T15:11:56.453Z,7.60
2017-12-20T15:14:24.138Z,7.40
2017-12-20T15:16:51.778Z,7.50
2017-12-20T15:19:19.408Z,7.40
2017-12-20T15:21:47.110Z,7.50
2017-12-20T15:24:14.750Z,7.50
2017-12-20T15:26:42.572Z,7.40
2017-12-20T15:29:10.236Z,7.60
2017-12-20T15:31:37.882Z,7.40
2017-12-20T15:34:05.591Z,7.40
2017-12-20T15:36:34.010Z,7.50
2017-12-20T15:39:01.662Z,7.20
2017-12-20T15:41:29.365Z,7.30
2017-12-20T15:43:58.755Z,7.30
2017-12-20T15:46:26.425Z,7.40
2017-12-20T15:48:54.077Z,7.50
2017-12-20T15:51:21.959Z,7.50
2017-12-20T15:53:49.598Z,7.30
2017-12-20T15:56:17.349Z,7.50
2017-12-20T15:58:44.996Z,7.50
2017-12-20T16:01:12.790Z,7.30
2017-12-20T16:03:40.429Z,7.40
2017-12-20T16:06:08.061Z,7.40
2017-12-20T16:08:35.734Z,7.40
2017-12-20T16:11:03.396Z,7.20
2017-12-20T16:13:31.038Z,7.20
2017-12-20T16:15:58.713Z,7.20
2017-12-20T16:18:26.392Z,7.40
2017-12-20T16:20:54.023Z,7.20
2017-12-20T16:23:22.258Z,7.30
2017-12-20T16:25:49.917Z,7.10
2017-12-20T16:28:18.346Z,7.20
2017-12-20T16:30:45.996Z,7.20
2017-12-20T16:33:13.665Z,7.30
2017-12-20T16:35:42.130Z,7.20
2017-12-20T16:38:09.758Z,7.40
2017-12-20T16:40:37.417Z,7.10
2017-12-20T16:43:05.863Z,7.20
2017-12-20T16:45:34.269Z,7.10
2017-12-20T16:48:01.942Z,7.20
2017-12-20T16:50:29.650Z,7.20
2017-12-20T16:52:57.357Z,7.20
2017-12-20T16:55:25.102Z,7.10
2017-12-20T16:57:52.750Z,7.10
2017-12-20T17:00:20.715Z,7.10
2017-12-20T17:02:48.336Z,7.20
2017-12-20T17:05:15.980Z,7.20
2017-12-20T17:07:43.667Z,7.20
2017-12-20T17:10:11.673Z,7.60
2017-12-20T17:12:39.381Z,7.10
2017-12-20T17:15:07.820Z,7.20
2017-12-20T17:17:35.441Z,7.00
2017-12-20T17:20:03.169Z,7.50
2017-12-20T17:22:30.837Z,7.00
2017-12-20T17:24:59.225Z,7.20
2017-12-20T17:27:27.654Z,7.10
2017-12-20T17:29:55.422Z,7.50
2017-12-20T17:32:23.128Z,7.20
2017-12-20T17:34:51.527Z,7.40
2017-12-20T17:37:21.006Z,7.20
2017-12-20T17:39:48.622Z,7.50
2017-12-20T17:42:16.369Z,7.30
2017-12-20T17:44:43.982Z,7.50
2017-12-20T17:47:14.138Z,7.40
2017-12-20T17:49:44.283Z,7.40
2017-12-20T17:52:12.098Z,7.40
2017-12-20T17:54:41.409Z,7.50
2017-12-20T17:57:09.396Z,7.20
2017-12-20T17:59:43.014Z,7.50
2017-12-20T18:02:12.374Z,7.50
2017-12-20T18:04:40.984Z,7.20
2017-12-20T18:07:13.680Z,7.40
2017-12-20T18:09:41.642Z,7.40
2017-12-20T18:12:14.483Z,7.50
2017-12-20T18:14:43.295Z,7.40
2017-12-20T18:17:11.091Z,7.50
2017-12-20T18:19:39.437Z,7.40
2017-12-20T18:22:08.005Z,7.40
2017-12-20T18:24:35.630Z,7.40
2017-12-20T18:27:04.018Z,7.50
2017-12-20T18:29:31.671Z,7.40
2017-12-20T18:32:00.066Z,7.40
2017-12-20T18:34:28.193Z,7.30
2017-12-20T18:36:55.814Z,7.40
2017-12-20T18:39:24.233Z,7.40
2017-12-20T18:41:52.096Z,7.40
2017-12-20T18:44:19.762Z,7.40
2017-12-20T18:46:47.796Z,7.50
2017-12-20T18:49:15.986Z,7.40
2017-12-20T18:51:43.617Z,7.30
2017-12-20T18:54:11.284Z,7.50
2017-12-20T18:56:38.966Z,7.40
2017-12-20T18:59:06.732Z,7.40
2017-12-20T19:01:34.440Z,7.40
2017-12-20T19:04:02.417Z,7.30
2017-12-20T19:06:33.458Z,7.40
2017-12-20T19:09:01.195Z,7.20
2017-12-20T19:11:29.927Z,7.40
2017-12-20T19:13:57.626Z,7.30
2017-12-20T19:16:25.807Z,7.50
2017-12-20T19:18:53.524Z,7.40
2017-12-20T19:21:21.968Z,7.40
2017-12-20T19:23:49.664Z,7.40
2017-12-20T19:26:17.285Z,7.20
2017-12-20T19:28:44.897Z,7.20
2017-12-20T19:31:12.568Z,7.20
2017-12-20T19:33:40.187Z,7.00
2017-12-20T19:36:08.709Z,7.30
2017-12-20T19:38:41.406Z,7.40
2017-12-20T19:41:14.104Z,7.40
2017-12-20T19:43:47.881Z,7.40
2017-12-20T19:46:21.083Z,7.40
2017-12-20T19:48:55.254Z,7.40
2017-12-20T19:51:28.154Z,7.40
2017-12-20T19:54:00.621Z,7.20
2017-12-20T19:56:32.874Z,7.20
2017-12-20T19:59:07.509Z,7.50
2017-12-20T20:01:43.263Z,7.30
2017-12-20T20:04:16.480Z,7.30
2017-12-20T20:06:50.002Z,7.40
2017-12-20T20:09:24.977Z,7.10
2017-12-20T20:11:59.695Z,7.50
2017-12-20T20:14:27.782Z,7.20
2017-12-20T20:16:55.553Z,7.50
2017-12-20T20:19:23.391Z,7.20
2017-12-20T20:21:51.005Z,7.30
2017-12-20T20:24:18.666Z,7.20
2017-12-20T20:26:46.918Z,7.20
2017-12-20T20:29:14.761Z,7.20
2017-12-20T20:31:43.210Z,7.20
2017-12-20T20:34:10.821Z,6.90
2017-12-20T20:36:38.478Z,7.00
2017-12-20T20:39:06.101Z,7.00
2017-12-20T20:41:33.769Z,6.90
2017-12-20T20:44:01.392Z,7.00
2017-12-20T20:46:29.067Z,6.80
2017-12-20T20:48:56.678Z,7.20
2017-12-20T20:51:25.798Z,6.90
2017-12-20T20:53:54.226Z,6.60
2017-12-20T20:56:22.183Z,6.90
2017-12-20T20:58:49.860Z,7.10
2017-12-20T21:01:17.471Z,7.10
2017-12-20T21:03:45.094Z,7.00
2017-12-20T21:06:13.382Z,6.90
2017-12-20T21:08:42.498Z,7.00
2017-12-20T21:11:10.162Z,6.90
2017-12-20T21:13:37.860Z,7.10
2017-12-20T21:16:05.492Z,7.10
2017-12-20T21:18:33.310Z,7.10
2017-12-20T21:21:00.940Z,7.10
2017-12-20T21:23:29.082Z,7.20
2017-12-20T21:25:56.742Z,6.60
2017-12-20T21:28:25.084Z,7.10
2017-12-20T21:30:53.981Z,7.10
2017-12-20T21:33:22.366Z,7.20
2017-12-20T21:35:51.014Z,7.10
2017-12-20T21:38:18.671Z,7.10
2017-12-20T21:40:46.338Z,7.10
2017-12-20T21:43:13.966Z,7.20
2017-12-20T21:45:41.590Z,6.70
2017-12-20T21:48:09.304Z,7.20
2017-12-20T21:50:37.626Z,6.90
2017-12-20T21:53:06.061Z,7.00
2017-12-20T21:55:33.846Z,6.90
2017-12-20T21:58:01.540Z,7.10
2017-12-20T22:00:30.021Z,7.10
2017-12-20T22:02:57.642Z,7.10
2017-12-20T22:05:25.905Z,7.10
2017-12-20T22:07:53.864Z,7.10
2017-12-20T22:10:21.533Z,7.00
2017-12-20T22:12:50.311Z,7.00
2017-12-20T22:15:17.943Z,6.90
2017-12-20T22:17:46.047Z,7.10
2017-12-20T22:20:13.706Z,7.00
2017-12-20T22:22:41.482Z,7.00
2017-12-20T22:25:09.156Z,7.00
2017-12-20T22:27:37.582Z,7.00
2017-12-20T22:30:05.242Z,7.00
2017-12-20T22:32:33.621Z,7.00
2017-12-20T22:35:01.285Z,7.00
2017-12-20T22:37:28.914Z,6.90
2017-12-20T22:39:56.581Z,7.10
2017-12-20T22:42:24.202Z,7.00
2017-12-20T22:44:51.926Z,7.00
2017-12-20T22:47:20.379Z,6.90
2017-12-20T22:49:48.042Z,7.10
2017-12-20T22:52:16.470Z,7.20
2017-12-20T22:54:44.082Z,6.80
2017-12-20T22:57:12.394Z,6.90
2017-12-20T22:59:40.691Z,7.10
2017-12-20T23:02:08.318Z,7.20
2017-12-20T23:04:35.973Z,7.20
2017-12-20T23:07:04.069Z,7.00
2017-12-20T23:09:31.739Z,6.90
2017-12-20T23:11:59.356Z,7.10
2017-12-20T23:14:27.946Z,7.10
2017-12-20T23:16:55.596Z,7.20
2017-12-20T23:19:23.521Z,7.00
2017-12-20T23:21:51.202Z,6.90
2017-12-20T23:24:18.821Z,7.20
2017-12-20T23:26:46.450Z,6.90
2017-12-20T23:29:14.119Z,7.10
2017-12-20T23:31:41.794Z,7.10
2017-12-20T23:34:10.085Z,7.20
2017-12-20T23:36:37.733Z,6.90
2017-12-20T23:39:06.503Z,7.20
2017-12-20T23:41:34.154Z,6.90
2017-12-20T23:44:01.784Z,7.10
2017-12-20T23:46:29.449Z,7.20
2017-12-20T23:48:57.085Z,7.50
2017-12-20T23:51:24.762Z,7.10
2017-12-20T23:53:52.593Z,7.30
2017-12-20T23:56:20.250Z,7.20
2017-12-20T23:58:47.875Z,7.00
